createdAt,value
2019-03-05T00:01:22.598Z,21.90
2019-03-05T00:04:38.309Z,21.90
2019-03-05T00:07:53.820Z,21.90
2019-03-05T00:11:09.610Z,21.90
2019-03-05T00:14:25.514Z,21.80
2019-03-05T00:17:41.329Z,21.80
2019-03-05T00:20:44.575Z,21.80
2019-03-05T00:24:26.664Z,21.80
2019-03-05T00:31:44.611Z,21.80
2019-03-05T00:35:00.339Z,21.80
2019-03-05T00:38:16.526Z,21.80
2019-03-05T00:41:32.591Z,21.80
2019-03-05T00:44:48.649Z,21.80
2019-03-05T00:48:04.373Z,21.80
2019-03-05T00:51:24.954Z,21.80
2019-03-05T00:54:37.952Z,21.80
2019-03-05T00:57:53.866Z,21.70
2019-03-05T01:01:09.949Z,21.80
2019-03-05T01:04:25.697Z,21.70
2019-03-05T01:07:41.653Z,21.70
2019-03-05T01:10:57.310Z,21.70
2019-03-05T01:14:13.419Z,21.70
2019-03-05T01:17:16.681Z,21.70
2019-03-05T01:20:19.949Z,21.70
2019-03-05T01:23:42.636Z,21.70
2019-03-05T01:27:05.322Z,21.70
2019-03-05T01:30:21.194Z,21.70
2019-03-05T01:33:41.865Z,21.70
2019-03-05T01:40:40.464Z,21.70
2019-03-05T01:43:56.307Z,21.70
2019-03-05T01:47:12.261Z,21.70
2019-03-05T01:50:27.890Z,21.70
2019-03-05T01:53:41.478Z,21.70
2019-03-05T01:57:04.153Z,21.70
2019-03-05T02:00:19.849Z,21.70
2019-03-05T02:03:35.937Z,21.70
2019-03-05T02:06:51.634Z,21.70
2019-03-05T02:10:08.318Z,21.70
2019-03-05T02:13:23.667Z,21.70
2019-03-05T02:16:39.511Z,21.70
2019-03-05T02:19:55.581Z,21.70
2019-03-05T02:23:11.260Z,21.70
2019-03-05T02:26:27.153Z,21.70
2019-03-05T02:29:42.771Z,21.70
2019-03-05T02:32:57.987Z,21.70
2019-03-05T02:36:13.613Z,21.70
2019-03-05T02:39:29.252Z,21.70
2019-03-05T02:42:44.556Z,21.70
2019-03-05T02:46:00.586Z,21.70
2019-03-05T02:49:16.584Z,21.70
2019-03-05T02:52:32.321Z,21.60
2019-03-05T02:55:48.441Z,21.70
2019-03-05T02:59:04.456Z,21.70
2019-03-05T03:02:39.261Z,21.60
2019-03-05T03:09:24.846Z,21.60
2019-03-05T03:12:40.673Z,21.60
2019-03-05T03:15:56.530Z,21.60
2019-03-05T03:19:12.314Z,21.60
2019-03-05T03:22:28.406Z,21.60
2019-03-05T03:25:44.285Z,21.60
2019-03-05T03:28:57.850Z,21.60
2019-03-05T03:32:13.455Z,21.60
2019-03-05T03:38:46.915Z,21.60
2019-03-05T03:42:02.586Z,21.60
2019-03-05T03:45:17.795Z,21.60
2019-03-05T03:48:33.016Z,21.60
2019-03-05T03:51:51.210Z,21.60
2019-03-05T03:55:06.018Z,21.60
2019-03-05T03:58:19.666Z,21.60
2019-03-05T04:01:42.346Z,21.60
2019-03-05T04:04:58.423Z,21.60
2019-03-05T04:08:14.218Z,21.60
2019-03-05T04:11:30.061Z,21.50
2019-03-05T04:14:45.933Z,21.60
2019-03-05T04:18:01.781Z,21.50
2019-03-05T04:21:20.044Z,21.50
2019-03-05T04:24:34.791Z,21.50
2019-03-05T04:27:50.081Z,21.50
2019-03-05T04:31:06.176Z,21.50
2019-03-05T04:34:22.142Z,21.50
2019-03-05T04:37:38.101Z,21.50
2019-03-05T04:40:54.047Z,21.50
2019-03-05T04:44:10.221Z,21.50
2019-03-05T04:47:26.100Z,21.50
2019-03-05T04:51:00.674Z,21.50
2019-03-05T04:54:16.064Z,21.50
2019-03-05T04:57:31.938Z,21.50
2019-03-05T05:00:47.872Z,21.50
2019-03-05T05:04:03.125Z,21.50
2019-03-05T05:07:18.357Z,21.40
2019-03-05T05:10:34.376Z,21.50
2019-03-05T05:13:49.589Z,21.50
2019-03-05T05:17:04.840Z,21.40
2019-03-05T05:20:20.333Z,21.40
2019-03-05T05:23:36.299Z,21.40
2019-03-05T05:26:51.766Z,21.40
2019-03-05T05:30:07.675Z,21.40
2019-03-05T05:33:23.550Z,21.40
2019-03-05T05:36:39.352Z,21.40
2019-03-05T05:43:58.651Z,21.40
2019-03-05T05:47:13.983Z,21.40
2019-03-05T05:53:54.412Z,21.40
2019-03-05T05:57:10.144Z,21.40
2019-03-05T06:00:25.334Z,21.40
2019-03-05T06:03:41.254Z,21.40
2019-03-05T06:06:57.419Z,21.40
2019-03-05T06:10:13.339Z,21.40
2019-03-05T06:13:29.287Z,21.40
2019-03-05T06:16:45.196Z,21.40
2019-03-05T06:20:00.448Z,21.40
2019-03-05T06:23:15.639Z,21.40
2019-03-05T06:26:31.638Z,21.40
2019-03-05T06:29:47.664Z,21.40
2019-03-05T06:33:03.813Z,21.40
2019-03-05T06:36:19.672Z,21.40
2019-03-05T06:39:33.258Z,21.40
2019-03-05T06:42:55.933Z,21.40
2019-03-05T06:46:11.865Z,21.40
2019-03-05T06:52:52.098Z,21.40
2019-03-05T06:56:07.907Z,21.40
2019-03-05T06:59:23.862Z,21.40
2019-03-05T07:02:39.241Z,21.40
2019-03-05T07:05:55.271Z,21.40
2019-03-05T07:09:11.364Z,21.40
2019-03-05T07:12:28.871Z,21.40
2019-03-05T07:15:44.243Z,21.40
2019-03-05T07:19:00.134Z,21.40
2019-03-05T07:22:16.164Z,21.40
2019-03-05T07:25:32.193Z,21.40
2019-03-05T07:28:48.089Z,21.40
2019-03-05T07:32:04.061Z,21.40
2019-03-05T07:35:20.700Z,21.40
2019-03-05T07:38:37.500Z,21.40
2019-03-05T07:41:53.074Z,21.40
2019-03-05T07:45:08.368Z,21.40
2019-03-05T07:48:21.916Z,21.30
2019-03-05T07:51:44.869Z,21.40
2019-03-05T07:55:00.339Z,21.30
2019-03-05T07:58:15.959Z,21.30
2019-03-05T08:01:34.735Z,21.40
2019-03-05T08:04:50.712Z,21.30
2019-03-05T08:08:06.600Z,21.30
2019-03-05T08:11:22.576Z,21.40
2019-03-05T08:14:38.485Z,21.30
2019-03-05T08:17:53.937Z,21.40
2019-03-05T08:21:09.105Z,21.30
2019-03-05T08:24:25.191Z,21.40
2019-03-05T08:27:41.121Z,21.40
2019-03-05T08:30:56.588Z,21.40
2019-03-05T08:34:10.155Z,21.40
2019-03-05T08:37:25.911Z,21.40
2019-03-05T08:40:41.800Z,21.40
2019-03-05T08:43:57.905Z,21.40
2019-03-05T08:47:13.164Z,21.40
2019-03-05T08:50:28.622Z,21.40
2019-03-05T08:53:49.503Z,21.40
2019-03-05T08:57:01.546Z,21.40
2019-03-05T09:00:17.421Z,21.40
2019-03-05T09:03:33.712Z,21.40
2019-03-05T09:06:49.577Z,21.40
2019-03-05T09:10:04.842Z,21.40
2019-03-05T09:13:31.958Z,21.40
2019-03-05T09:16:37.968Z,21.50
2019-03-05T09:19:53.309Z,21.50
2019-03-05T09:23:09.243Z,21.50
2019-03-05T09:26:24.613Z,21.50
2019-03-05T09:29:39.890Z,21.50
2019-03-05T09:32:55.916Z,21.50
2019-03-05T09:36:11.968Z,21.50
2019-03-05T09:39:27.989Z,21.50
2019-03-05T09:42:44.057Z,21.50
2019-03-05T09:45:59.963Z,21.50
2019-03-05T09:49:16.029Z,21.50
2019-03-05T09:52:31.272Z,21.50
2019-03-05T09:55:47.454Z,21.50
2019-03-05T09:59:02.667Z,21.50
2019-03-05T10:02:18.105Z,21.50
2019-03-05T10:05:33.443Z,21.50
2019-03-05T10:08:48.696Z,21.50
2019-03-05T10:12:02.293Z,21.60
2019-03-05T10:15:25.237Z,21.60
2019-03-05T10:18:28.531Z,21.60
2019-03-05T10:21:51.244Z,21.60
2019-03-05T10:25:07.382Z,21.60
2019-03-05T10:28:23.280Z,21.60
2019-03-05T10:31:39.274Z,21.60
2019-03-05T10:34:54.698Z,21.60
2019-03-05T10:38:10.119Z,21.60
2019-03-05T10:41:26.256Z,21.60
2019-03-05T10:44:42.029Z,21.60
2019-03-05T10:47:58.024Z,21.60
2019-03-05T10:51:14.157Z,21.60
2019-03-05T10:54:30.216Z,21.60
2019-03-05T10:57:46.209Z,21.60
2019-03-05T11:01:02.084Z,21.60
2019-03-05T11:04:18.027Z,21.70
2019-03-05T11:07:33.707Z,21.70
2019-03-05T11:10:49.880Z,21.70
2019-03-05T11:14:05.501Z,21.70
2019-03-05T11:17:21.605Z,21.70
2019-03-05T11:20:37.543Z,21.70
2019-03-05T11:23:53.526Z,21.70
2019-03-05T11:27:09.538Z,21.70
2019-03-05T11:30:35.291Z,21.70
2019-03-05T11:33:42.064Z,21.70
2019-03-05T11:36:58.099Z,21.70
2019-03-05T11:40:21.047Z,21.70
2019-03-05T11:43:31.229Z,21.70
2019-03-05T11:46:46.739Z,21.70
2019-03-05T11:50:02.707Z,21.70
2019-03-05T11:53:17.984Z,21.80
2019-03-05T11:56:33.305Z,21.80
2019-03-05T11:59:49.237Z,21.80
2019-03-05T12:03:05.334Z,21.80
2019-03-05T12:06:21.401Z,21.80
2019-03-05T12:09:37.312Z,21.80
2019-03-05T12:12:53.169Z,21.80
2019-03-05T12:16:09.191Z,21.80
2019-03-05T12:19:12.573Z,21.80
2019-03-05T12:22:35.254Z,21.80
2019-03-05T12:25:39.855Z,21.80
2019-03-05T12:29:08.296Z,21.80
2019-03-05T12:32:32.972Z,21.80
2019-03-05T12:35:48.144Z,21.80
2019-03-05T12:39:04.821Z,21.80
2019-03-05T12:45:37.060Z,21.80
2019-03-05T12:48:59.732Z,21.80
2019-03-05T12:52:15.176Z,21.80
2019-03-05T12:55:31.434Z,21.80
2019-03-05T12:58:47.352Z,21.80
2019-03-05T13:02:09.228Z,21.80
2019-03-05T13:05:22.693Z,21.80
2019-03-05T13:08:38.465Z,21.80
2019-03-05T13:11:53.837Z,21.80
2019-03-05T13:15:09.308Z,21.80
2019-03-05T13:18:26.881Z,21.80
2019-03-05T13:21:48.372Z,21.80
2019-03-05T13:25:01.424Z,21.80
2019-03-05T13:28:16.653Z,21.80
2019-03-05T13:31:31.896Z,21.80
2019-03-05T13:34:48.073Z,21.80
2019-03-05T13:38:07.391Z,21.80
2019-03-05T13:41:21.301Z,21.80
2019-03-05T13:44:37.093Z,21.80
2019-03-05T13:48:01.399Z,21.80
2019-03-05T13:51:36.021Z,21.80
2019-03-05T13:54:51.385Z,21.80
2019-03-05T13:58:07.419Z,21.90
2019-03-05T14:01:23.315Z,21.90
2019-03-05T14:04:38.782Z,21.90
2019-03-05T14:07:54.886Z,21.90
2019-03-05T14:11:10.982Z,21.90
2019-03-05T14:14:27.074Z,21.90
2019-03-05T14:21:00.125Z,21.90
2019-03-05T14:24:22.806Z,21.90
2019-03-05T14:27:38.621Z,21.90
2019-03-05T14:30:54.546Z,21.90
2019-03-05T14:34:09.918Z,22.00
2019-03-05T14:37:25.148Z,22.00
2019-03-05T14:40:41.205Z,22.00
2019-03-05T14:43:44.608Z,22.00
2019-03-05T14:47:07.322Z,22.00
2019-03-05T14:50:30.014Z,22.00
2019-03-05T14:53:45.971Z,22.00
2019-03-05T14:57:01.956Z,22.00
2019-03-05T15:00:18.004Z,22.00
2019-03-05T15:03:33.782Z,22.00
2019-03-05T15:06:49.994Z,22.00
2019-03-05T15:10:06.097Z,22.00
2019-03-05T15:20:08.621Z,22.10
2019-03-05T15:23:22.329Z,22.10
2019-03-05T15:26:45.062Z,22.10
2019-03-05T15:30:01.158Z,22.10
2019-03-05T15:33:04.467Z,22.10
2019-03-05T15:36:28.837Z,22.10
2019-03-05T15:39:51.595Z,22.10
2019-03-05T15:42:54.913Z,22.10
2019-03-05T15:45:58.213Z,22.10
2019-03-05T15:49:21.157Z,22.10
2019-03-05T15:52:43.913Z,22.10
2019-03-05T15:55:59.494Z,22.10
2019-03-05T15:59:18.888Z,22.20
2019-03-05T16:02:38.595Z,22.10
2019-03-05T16:05:57.735Z,22.10
2019-03-05T16:09:12.362Z,22.20
2019-03-05T16:12:27.821Z,22.20
2019-03-05T16:15:45.611Z,22.20
2019-03-05T16:19:00.400Z,22.20
2019-03-05T16:22:18.305Z,22.20
2019-03-05T16:25:35.144Z,22.20
2019-03-05T16:28:51.105Z,22.20
2019-03-05T16:32:08.146Z,22.20
2019-03-05T16:35:27.738Z,22.20
2019-03-05T16:42:13.341Z,22.20
2019-03-05T16:45:32.879Z,22.20
2019-03-05T16:48:49.872Z,22.20
2019-03-05T16:52:24.877Z,22.20
2019-03-05T16:55:45.045Z,22.20
2019-03-05T16:59:02.167Z,22.20
2019-03-05T17:02:19.180Z,22.20
2019-03-05T17:05:54.328Z,22.20
2019-03-05T17:09:29.273Z,22.20
2019-03-05T17:12:44.832Z,22.20
2019-03-05T17:16:00.841Z,22.20
2019-03-05T17:19:16.718Z,22.20
2019-03-05T17:22:32.679Z,22.20
2019-03-05T17:25:47.881Z,22.20
2019-03-05T17:29:03.594Z,22.20
2019-03-05T17:32:19.062Z,22.20
2019-03-05T17:35:35.071Z,22.30
2019-03-05T17:38:50.429Z,22.30
2019-03-05T17:42:05.617Z,22.30
2019-03-05T17:45:20.945Z,22.30
2019-03-05T17:48:36.180Z,22.30
2019-03-05T17:51:51.433Z,22.30
2019-03-05T17:55:07.434Z,22.30
2019-03-05T17:58:23.450Z,22.30
2019-03-05T18:01:39.473Z,22.30
2019-03-05T18:04:55.537Z,22.30
2019-03-05T18:08:10.822Z,22.40
2019-03-05T18:11:26.121Z,22.30
2019-03-05T18:14:41.439Z,22.40
2019-03-05T18:17:57.541Z,22.30
2019-03-05T18:21:12.793Z,22.30
2019-03-05T18:24:28.544Z,22.30
2019-03-05T18:27:43.766Z,22.40
2019-03-05T18:30:59.908Z,22.40
2019-03-05T18:34:15.805Z,22.40
2019-03-05T18:37:37.737Z,22.40
2019-03-05T18:40:53.213Z,22.40
2019-03-05T18:44:08.672Z,22.40
2019-03-05T18:47:23.824Z,22.40
2019-03-05T18:50:39.959Z,22.40
2019-03-05T18:53:55.866Z,22.50
2019-03-05T18:57:11.112Z,22.40
2019-03-05T19:00:26.640Z,22.50
2019-03-05T19:03:42.449Z,22.50
2019-03-05T19:06:58.501Z,22.40
2019-03-05T19:10:13.673Z,22.40
2019-03-05T19:13:36.351Z,22.40
2019-03-05T19:16:51.991Z,22.40
2019-03-05T19:20:07.212Z,22.40
2019-03-05T19:23:23.350Z,22.40
2019-03-05T19:26:39.415Z,22.40
2019-03-05T19:29:55.360Z,22.40
2019-03-05T19:33:11.344Z,22.40
2019-03-05T19:36:27.274Z,22.40
2019-03-05T19:39:43.378Z,22.40
2019-03-05T19:42:59.420Z,22.40
2019-03-05T19:46:15.537Z,22.40
2019-03-05T19:49:31.354Z,22.40
2019-03-05T19:52:47.133Z,22.40
2019-03-05T19:56:03.126Z,22.40
2019-03-05T19:59:19.193Z,22.40
2019-03-05T20:02:35.369Z,22.40
2019-03-05T20:05:50.597Z,22.40
2019-03-05T20:09:06.619Z,22.40
2019-03-05T20:12:22.216Z,22.40
2019-03-05T20:15:38.201Z,22.40
2019-03-05T20:18:54.247Z,22.40
2019-03-05T20:22:10.277Z,22.40
2019-03-05T20:25:25.529Z,22.40
2019-03-05T20:28:41.724Z,22.30
2019-03-05T20:31:56.979Z,22.30
2019-03-05T20:35:13.657Z,22.30
2019-03-05T20:38:29.096Z,22.30
2019-03-05T20:41:45.266Z,22.30
2019-03-05T20:45:01.298Z,22.30
2019-03-05T20:48:16.474Z,22.30
2019-03-05T20:51:32.392Z,22.20
2019-03-05T20:54:47.595Z,22.30
2019-03-05T20:58:04.537Z,22.20
2019-03-05T21:01:20.533Z,22.20
2019-03-05T21:04:35.560Z,22.20
2019-03-05T21:07:51.513Z,22.20
2019-03-05T21:11:07.603Z,22.20
2019-03-05T21:14:23.741Z,22.20
2019-03-05T21:17:39.796Z,22.20
2019-03-05T21:20:55.549Z,22.10
2019-03-05T21:24:09.156Z,22.20
2019-03-05T21:27:25.473Z,22.20
2019-03-05T21:30:41.496Z,22.10
2019-03-05T21:33:57.537Z,22.10
2019-03-05T21:37:12.804Z,22.10
2019-03-05T21:40:28.856Z,22.10
2019-03-05T21:43:44.808Z,22.10
2019-03-05T21:47:00.778Z,22.10
2019-03-05T21:50:16.222Z,22.10
2019-03-05T21:53:32.388Z,22.10
2019-03-05T21:56:47.775Z,22.10
2019-03-05T22:00:03.639Z,22.10
2019-03-05T22:03:19.319Z,22.10
2019-03-05T22:06:35.257Z,22.10
2019-03-05T22:09:50.420Z,22.00
2019-03-05T22:13:04.058Z,22.00
2019-03-05T22:16:26.784Z,22.00
2019-03-05T22:19:42.262Z,22.00
2019-03-05T22:22:57.551Z,22.00
2019-03-05T22:26:13.774Z,22.00
2019-03-05T22:29:27.426Z,22.00
2019-03-05T22:32:50.182Z,22.00
2019-03-05T22:36:05.962Z,22.00
2019-03-05T22:39:21.860Z,22.00
2019-03-05T22:42:37.865Z,22.00
2019-03-05T22:45:53.691Z,22.00
2019-03-05T22:49:07.332Z,22.00
2019-03-05T22:52:30.012Z,21.90
2019-03-05T22:55:45.378Z,21.90
2019-03-05T23:02:34.077Z,21.90
2019-03-05T23:05:49.950Z,21.90
2019-03-05T23:09:07.622Z,21.90
2019-03-05T23:12:22.900Z,21.90
2019-03-05T23:15:38.786Z,21.90
2019-03-05T23:18:54.218Z,21.90
2019-03-05T23:22:07.853Z,21.90
2019-03-05T23:25:23.068Z,21.90
2019-03-05T23:28:39.197Z,21.90
2019-03-05T23:31:42.525Z,21.90
2019-03-05T23:34:45.808Z,21.90
2019-03-05T23:37:49.145Z,21.90
2019-03-05T23:40:52.401Z,21.90
2019-03-05T23:43:55.708Z,21.80
2019-03-05T23:47:18.393Z,21.90
2019-03-05T23:50:33.761Z,21.80
2019-03-05T23:53:49.832Z,21.90
2019-03-05T23:57:05.654Z,21.80
